sensor_id;sensor_type;location;lat;lon;timestamp;temperature;humidity
22132;DHT22;11232;51.748;19.390;2024-01-30T19:40:23;4.30;97.30
22132;DHT22;11232;51.748;19.390;2024-01-30T19:42:54;4.30;97.70
22132;DHT22;11232;51.748;19.390;2024-01-30T19:45:20;4.30;97.70
22132;DHT22;11232;51.748;19.390;2024-01-30T19:47:46;4.30;97.70
22132;DHT22;11232;51.748;19.390;2024-01-30T19:50:12;4.30;97.70
22132;DHT22;11232;51.748;19.390;2024-01-30T19:52:41;4.20;97.90
22132;DHT22;11232;51.748;19.390;2024-01-30T19:55:11;4.20;98.00
22132;DHT22;11232;51.748;19.390;2024-01-30T19:57:38;4.20;98.00
22132;DHT22;11232;51.748;19.390;2024-01-30T20:00:04;5.70;98.60
22132;DHT22;11232;51.748;19.390;2024-01-30T20:02:30;4.10;98.20
22132;DHT22;11232;51.748;19.390;2024-01-30T20:04:56;4.10;98.30
22132;DHT22;11232;51.748;19.390;2024-01-30T20:07:22;5.70;98.90
22132;DHT22;11232;51.748;19.390;2024-01-30T20:09:47;6.10;99.00
22132;DHT22;11232;51.748;19.390;2024-01-30T20:12:13;4.10;98.60
22132;DHT22;11232;51.748;19.390;2024-01-30T20:14:40;4.00;98.70
22132;DHT22;11232;51.748;19.390;2024-01-30T20:17:05;4.60;99.00
22132;DHT22;11232;51.748;19.390;2024-01-30T20:19:32;4.20;98.90
22132;DHT22;11232;51.748;19.390;2024-01-30T20:22:01;4.00;99.00
22132;DHT22;11232;51.748;19.390;2024-01-30T20:24:27;4.00;99.00
22132;DHT22;11232;51.748;19.390;2024-01-30T20:26:53;5.10;99.50
22132;DHT22;11232;51.748;19.390;2024-01-30T20:29:18;3.90;99.30
22132;DHT22;11232;51.748;19.390;2024-01-30T20:31:45;3.90;99.40
22132;DHT22;11232;51.748;19.390;2024-01-30T20:34:10;3.90;99.40
22132;DHT22;11232;51.748;19.390;2024-01-30T20:36:36;3.90;99.60
22132;DHT22;11232;51.748;19.390;2024-01-30T20:39:02;3.90;99.70
22132;DHT22;11232;51.748;19.390;2024-01-30T20:41:37;3.90;99.90
22132;DHT22;11232;51.748;19.390;2024-01-30T20:44:03;3.90;99.90
22132;DHT22;11232;51.748;19.390;2024-01-30T20:46:29;3.80;99.90
22132;DHT22;11232;51.748;19.390;2024-01-30T20:48:55;3.80;99.90
22132;DHT22;11232;51.748;19.390;2024-01-30T20:51:20;4.00;99.90
22132;DHT22;11232;51.748;19.390;2024-01-30T20:53:46;5.60;99.90
22132;DHT22;11232;51.748;19.390;2024-01-30T20:56:11;3.70;99.90
22132;DHT22;11232;51.748;19.390;2024-01-30T20:58:39;3.70;99.90
22132;DHT22;11232;51.748;19.390;2024-01-30T21:01:05;3.70;99.90
22132;DHT22;11232;51.748;19.390;2024-01-30T21:03:30;4.00;99.90
22132;DHT22;11232;51.748;19.390;2024-01-30T21:05:57;3.60;99.90
22132;DHT22;11232;51.748;19.390;2024-01-30T21:08:24;3.60;99.90
22132;DHT22;11232;51.748;19.390;2024-01-30T21:10:49;3.60;99.90
22132;DHT22;11232;51.748;19.390;2024-01-30T21:13:15;3.50;99.90
22132;DHT22;11232;51.748;19.390;2024-01-30T21:15:41;3.50;99.90
22132;DHT22;11232;51.748;19.390;2024-01-30T21:18:06;3.50;99.90
22132;DHT22;11232;51.748;19.390;2024-01-30T21:20:34;3.50;99.90
22132;DHT22;11232;51.748;19.390;2024-01-30T21:22:59;3.40;99.90
22132;DHT22;11232;51.748;19.390;2024-01-30T21:25:26;3.40;99.90
22132;DHT22;11232;51.748;19.390;2024-01-30T21:27:53;3.30;99.90
22132;DHT22;11232;51.748;19.390;2024-01-30T21:30:19;3.30;99.90
22132;DHT22;11232;51.748;19.390;2024-01-30T21:32:45;3.30;99.90
22132;DHT22;11232;51.748;19.390;2024-01-30T21:35:11;3.30;99.90
22132;DHT22;11232;51.748;19.390;2024-01-30T21:37:37;3.20;99.90
22132;DHT22;11232;51.748;19.390;2024-01-30T21:40:03;3.20;99.90
22132;DHT22;11232;51.748;19.390;2024-01-30T21:42:29;3.20;99.90
22132;DHT22;11232;51.748;19.390;2024-01-30T21:44:55;3.20;99.90
22132;DHT22;11232;51.748;19.390;2024-01-30T21:47:24;3.20;99.90
22132;DHT22;11232;51.748;19.390;2024-01-30T21:49:50;3.30;99.90
22132;DHT22;11232;51.748;19.390;2024-01-30T21:52:17;3.20;99.90
22132;DHT22;11232;51.748;19.390;2024-01-30T21:54:42;3.10;99.90
22132;DHT22;11232;51.748;19.390;2024-01-30T21:57:08;3.10;99.90
22132;DHT22;11232;51.748;19.390;2024-01-30T21:59:34;3.10;99.90
22132;DHT22;11232;51.748;19.390;2024-01-30T22:02:00;3.20;99.90
22132;DHT22;11232;51.748;19.390;2024-01-30T22:04:26;3.10;99.90
22132;DHT22;11232;51.748;19.390;2024-01-30T22:06:51;3.10;99.90
22132;DHT22;11232;51.748;19.390;2024-01-30T22:09:17;3.10;99.90
22132;DHT22;11232;51.748;19.390;2024-01-30T22:11:43;4.50;99.90
22132;DHT22;11232;51.748;19.390;2024-01-30T22:14:08;4.50;99.90
22132;DHT22;11232;51.748;19.390;2024-01-30T22:16:34;3.00;99.90
22132;DHT22;11232;51.748;19.390;2024-01-30T22:18:59;3.60;99.90
22132;DHT22;11232;51.748;19.390;2024-01-30T22:21:25;4.90;99.90
22132;DHT22;11232;51.748;19.390;2024-01-30T22:23:51;3.00;99.90
22132;DHT22;11232;51.748;19.390;2024-01-30T22:26:17;3.00;99.90
22132;DHT22;11232;51.748;19.390;2024-01-30T22:28:43;4.20;99.90
22132;DHT22;11232;51.748;19.390;2024-01-30T22:31:08;4.00;99.90
22132;DHT22;11232;51.748;19.390;2024-01-30T22:33:35;3.40;99.90
22132;DHT22;11232;51.748;19.390;2024-01-30T22:36:00;3.00;99.90
22132;DHT22;11232;51.748;19.390;2024-01-30T22:38:26;3.00;99.90
22132;DHT22;11232;51.748;19.390;2024-01-30T22:40:52;3.00;99.90
22132;DHT22;11232;51.748;19.390;2024-01-30T22:43:18;3.00;99.90
22132;DHT22;11232;51.748;19.390;2024-01-30T22:45:44;4.30;99.90
22132;DHT22;11232;51.748;19.390;2024-01-30T22:48:09;2.90;99.90
22132;DHT22;11232;51.748;19.390;2024-01-30T22:50:35;4.80;99.90
22132;DHT22;11232;51.748;19.390;2024-01-30T22:53:00;2.90;99.90
22132;DHT22;11232;51.748;19.390;2024-01-30T22:55:26;2.90;99.90
22132;DHT22;11232;51.748;19.390;2024-01-30T22:57:52;2.90;99.90
22132;DHT22;11232;51.748;19.390;2024-01-30T23:00:19;2.90;99.90
22132;DHT22;11232;51.748;19.390;2024-01-30T23:02:53;2.90;99.90
22132;DHT22;11232;51.748;19.390;2024-01-30T23:05:19;2.90;99.90
22132;DHT22;11232;51.748;19.390;2024-01-30T23:07:49;2.80;99.90
22132;DHT22;11232;51.748;19.390;2024-01-30T23:10:15;2.90;99.90
22132;DHT22;11232;51.748;19.390;2024-01-30T23:12:42;2.80;99.90
22132;DHT22;11232;51.748;19.390;2024-01-30T23:15:08;3.80;99.90
22132;DHT22;11232;51.748;19.390;2024-01-30T23:17:34;2.90;99.90
22132;DHT22;11232;51.748;19.390;2024-01-30T23:22:27;2.90;99.90
22132;DHT22;11232;51.748;19.390;2024-01-30T23:24:52;2.90;99.90
22132;DHT22;11232;51.748;19.390;2024-01-30T23:27:18;3.50;99.90
22132;DHT22;11232;51.748;19.390;2024-01-30T23:29:44;2.80;99.90
22132;DHT22;11232;51.748;19.390;2024-01-30T23:32:10;2.90;99.90
22132;DHT22;11232;51.748;19.390;2024-01-30T23:34:36;2.80;99.90
22132;DHT22;11232;51.748;19.390;2024-01-30T23:37:02;3.40;99.90
22132;DHT22;11232;51.748;19.390;2024-01-30T23:39:27;2.90;99.90
22132;DHT22;11232;51.748;19.390;2024-01-30T23:41:53;3.30;99.90
22132;DHT22;11232;51.748;19.390;2024-01-30T23:44:19;2.90;99.90
22132;DHT22;11232;51.748;19.390;2024-01-30T23:46:44;2.90;99.90
22132;DHT22;11232;51.748;19.390;2024-01-30T23:49:10;4.90;99.90
22132;DHT22;11232;51.748;19.390;2024-01-30T23:51:37;2.90;99.90
22132;DHT22;11232;51.748;19.390;2024-01-30T23:54:03;4.70;99.90
22132;DHT22;11232;51.748;19.390;2024-01-30T23:56:28;2.90;99.90
22132;DHT22;11232;51.748;19.390;2024-01-30T23:58:54;2.90;99.90
